Aérodrome :
LOGIN :

S'inscrire | Disclaimer

   EN    FR    IT 

 










Légende :    VFR   VFR Marginal   IFR   IFR Intensif   IFR Très Intensif
Visi : 
Plafond : 
>= 8 km
>= 3000ft
5 à 8 km
1000 à 3000 ft
1500m à 5 km
500 à 1000 ft
800 à 1500m
200 à 500 ft
< 800m
< 200 ft
Symboles :   Orages  Brouillard  Fortes neiges  Fortes précipitations  Vent > 20 kt
SIGMETs :   Divers  Orages  Givrage  Turbulence  Onde Orograph.  Cendres Volcan.






- Altitude de l'aérodrome : 392 ft
- Code IATA : CDG


LFPG - Paris-Aeroport Charles De Gaulle

DERNIER METAR :
  • 231330Z 25008KT 9999 -RA FEW005 BKN013 FEW020TCU BKN028 05/04 Q0991 NOSIG

METARs EXPIRÉS :
  • 231300Z 23006KT 200V260 9999 -RA FEW005 BKN008 SCT013TCU BKN014 05/04 Q0991 NOSIG
  • 231230Z 20008KT 9999 -RA FEW005 BKN007 BKN013 05/04 Q0991 NOSIG
  • 231200Z 18008KT 9999 -RA FEW005 BKN006 BKN011 04/04 Q0991 NOSIG
  • 231130Z 17008KT 8000 -RA FEW006 BKN007 BKN012 04/03 Q0991 NOSIG
  • 231100Z 16010KT 8000 -RA FEW006 BKN007 BKN013 04/03 Q0992 NOSIG

TAF TAF LFPG
Valide du 23 à 12h jusqu'au 24 à 18h UTC


231100Z 2312/2418 19010KT 9999 BKN009 TX05/2313Z TNM02/2406Z
BECMG 2312/2314 32010KT BKN012
TEMPO 2312/2315 3000 SHRA BKN009 SCT011TCU
TEMPO 2316/2318 34015G25KT
BECMG 2320/2322 CAVOK
BECMG 2410/2412 18010KT BKN010
TEMPO 2412/2415 2000 SN BKN004
BECMG 2416/2418 BKN016
ATIS : +33 1 48 62 10 92



MET'MAP, la Météo Aéronautique d'un coup d'oeil ! - Copyright ORBIFLY Décembre 2007 - Disclaimer

ORBIFLY MET'MAP TEAM :

Programmation & Développement : Alexandra Zaïnal
Sur une idée originale de : Baudouin d'Aumeries
Assistance à la programmation : Marc-Olivier Méhu
Soutien technique & logistique : Manuel Goepfert

Contact : metmap@orbifly.com




SOURCES & CREDITS :

   NOAA